createdAt,value
2016-07-31T00:00:02.041Z,1006.47
2016-07-31T00:01:02.048Z,1006.46
2016-07-31T00:02:02.055Z,1006.43
2016-07-31T00:03:02.059Z,1006.43
2016-07-31T00:04:02.069Z,1006.39
2016-07-31T00:05:02.076Z,1006.44
2016-07-31T00:06:02.083Z,1006.4
2016-07-31T00:07:02.086Z,1006.37
2016-07-31T00:08:02.095Z,1006.39
2016-07-31T00:09:02.101Z,1006.38
2016-07-31T00:10:02.110Z,1006.37
2016-07-31T00:11:02.117Z,1006.3
2016-07-31T00:12:02.124Z,1006.33
2016-07-31T00:13:02.130Z,1006.25
2016-07-31T00:14:02.137Z,1006.29
2016-07-31T00:15:02.144Z,1006.27
2016-07-31T00:16:02.151Z,1006.25
2016-07-31T00:17:02.658Z,1006.28
2016-07-31T00:18:02.164Z,1006.25
2016-07-31T00:19:02.171Z,1006.24
2016-07-31T00:20:02.177Z,1006.22
2016-07-31T00:21:02.185Z,1006.18
2016-07-31T00:22:02.189Z,1006.15
2016-07-31T00:23:02.197Z,1006.18
2016-07-31T00:24:02.204Z,1006.14
2016-07-31T00:25:02.211Z,1006.12
2016-07-31T00:26:02.217Z,1006.09
2016-07-31T00:27:02.224Z,1006.1
2016-07-31T00:28:03.083Z,1006.07
2016-07-31T00:29:02.238Z,1006.11
2016-07-31T00:30:02.246Z,1006.07
2016-07-31T00:31:02.250Z,1006.08
2016-07-31T00:32:02.261Z,1006.07
2016-07-31T00:33:02.265Z,1006.08
2016-07-31T00:34:02.271Z,1006.09
2016-07-31T00:35:02.280Z,1006.11
2016-07-31T00:36:02.286Z,1006.06
2016-07-31T00:37:02.291Z,1006.08
2016-07-31T00:38:02.299Z,1006.07
2016-07-31T00:39:03.407Z,1006.06
2016-07-31T00:40:02.311Z,1006.11
2016-07-31T00:41:02.320Z,1006.09
2016-07-31T00:42:02.326Z,1006.11
2016-07-31T00:43:02.331Z,1006.07
2016-07-31T00:44:02.339Z,1006.11
2016-07-31T00:45:02.344Z,1006.12
2016-07-31T00:46:02.353Z,1006.13
2016-07-31T00:47:02.358Z,1006.15
2016-07-31T00:48:02.364Z,1006.11
2016-07-31T00:49:02.373Z,1006.15
2016-07-31T00:50:02.380Z,1006.16
2016-07-31T00:51:02.384Z,1006.19
2016-07-31T00:52:02.392Z,1006.16
2016-07-31T00:53:02.401Z,1006.16
2016-07-31T00:54:02.406Z,1006.15
2016-07-31T00:55:02.414Z,1006.18
2016-07-31T00:56:02.421Z,1006.17
2016-07-31T00:57:02.427Z,1006.18
2016-07-31T00:59:02.493Z,1006.2
2016-07-31T01:00:02.448Z,1006.19
2016-07-31T01:01:02.455Z,1006.22
2016-07-31T01:02:02.461Z,1006.19
2016-07-31T01:03:02.468Z,1006.22
2016-07-31T01:04:02.475Z,1006.2
2016-07-31T01:05:02.482Z,1006.22
2016-07-31T01:06:02.488Z,1006.19
2016-07-31T01:07:02.545Z,1006.21
2016-07-31T01:08:02.503Z,1006.22
2016-07-31T01:09:02.508Z,1006.22
2016-07-31T01:10:02.715Z,1006.23
2016-07-31T01:11:02.523Z,1006.25
2016-07-31T01:12:02.529Z,1006.23
2016-07-31T01:14:02.596Z,1006.2
2016-07-31T01:15:02.550Z,1006.2
2016-07-31T01:16:02.556Z,1006.21
2016-07-31T01:17:02.566Z,1006.24
2016-07-31T01:18:02.569Z,1006.25
2016-07-31T01:19:02.576Z,1006.25
2016-07-31T01:20:02.583Z,1006.25
2016-07-31T01:21:02.990Z,1006.25
2016-07-31T01:22:02.600Z,1006.27
2016-07-31T01:23:02.604Z,1006.27
2016-07-31T01:24:02.610Z,1006.3
2016-07-31T01:25:02.618Z,1006.34
2016-07-31T01:26:02.626Z,1006.35
2016-07-31T01:27:02.630Z,1006.34
2016-07-31T01:29:02.643Z,1006.32
2016-07-31T01:30:02.651Z,1006.37
2016-07-31T01:31:02.656Z,1006.36
2016-07-31T01:32:03.765Z,1006.38
2016-07-31T01:33:02.669Z,1006.38
2016-07-31T01:34:02.679Z,1006.37
2016-07-31T01:35:02.683Z,1006.37
2016-07-31T01:36:02.689Z,1006.35
2016-07-31T01:37:02.699Z,1006.34
2016-07-31T01:38:02.704Z,1006.34
2016-07-31T01:39:02.711Z,1006.36
2016-07-31T01:40:02.717Z,1006.36
2016-07-31T01:41:02.724Z,1006.35
2016-07-31T01:42:02.730Z,1006.41
2016-07-31T01:44:02.745Z,1006.38
2016-07-31T01:45:02.803Z,1006.4
2016-07-31T01:46:02.757Z,1006.41
2016-07-31T01:47:02.765Z,1006.38
2016-07-31T01:48:02.772Z,1006.42
2016-07-31T01:49:02.777Z,1006.42
2016-07-31T01:50:02.786Z,1006.47
2016-07-31T01:51:02.792Z,1006.45
2016-07-31T01:52:02.799Z,1006.45
2016-07-31T01:53:02.805Z,1006.43
2016-07-31T01:54:02.812Z,1006.42
2016-07-31T01:55:02.817Z,1006.44
2016-07-31T01:56:02.826Z,1006.44
2016-07-31T01:57:02.831Z,1006.46
2016-07-31T01:58:02.839Z,1006.44
2016-07-31T01:59:02.845Z,1006.41
2016-07-31T02:00:02.852Z,1006.42
2016-07-31T02:01:02.862Z,1006.42
2016-07-31T02:02:02.865Z,1006.44
2016-07-31T02:03:02.971Z,1006.42
2016-07-31T02:04:02.878Z,1006.42
2016-07-31T02:05:02.886Z,1006.45
2016-07-31T02:06:02.891Z,1006.41
2016-07-31T02:07:02.899Z,1006.4
2016-07-31T02:08:02.957Z,1006.4
2016-07-31T02:09:02.914Z,1006.42
2016-07-31T02:10:02.919Z,1006.4
2016-07-31T02:11:02.926Z,1006.39
2016-07-31T02:12:02.934Z,1006.38
2016-07-31T02:13:02.941Z,1006.38
2016-07-31T02:14:03.548Z,1006.37
2016-07-31T02:15:02.954Z,1006.39
2016-07-31T02:16:02.961Z,1006.4
2016-07-31T02:17:02.966Z,1006.4
2016-07-31T02:18:02.973Z,1006.4
2016-07-31T02:19:02.978Z,1006.4
2016-07-31T02:20:02.987Z,1006.42
2016-07-31T02:21:02.993Z,1006.43
2016-07-31T02:22:03.000Z,1006.44
2016-07-31T02:23:03.006Z,1006.45
2016-07-31T02:24:03.013Z,1006.46
2016-07-31T02:25:04.021Z,1006.44
2016-07-31T02:26:03.027Z,1006.44
2016-07-31T02:27:03.032Z,1006.39
2016-07-31T02:28:03.040Z,1006.41
2016-07-31T02:29:03.046Z,1006.38
2016-07-31T02:30:03.103Z,1006.43
2016-07-31T02:31:03.060Z,1006.41
2016-07-31T02:32:03.066Z,1006.4
2016-07-31T02:33:03.075Z,1006.41
2016-07-31T02:34:03.079Z,1006.43
2016-07-31T02:35:03.085Z,1006.37
2016-07-31T02:36:04.220Z,1006.4
2016-07-31T02:37:03.099Z,1006.35
2016-07-31T02:38:03.105Z,1006.32
2016-07-31T02:39:03.112Z,1006.32
2016-07-31T02:40:03.118Z,1006.3
2016-07-31T02:41:03.126Z,1006.32
2016-07-31T02:42:03.182Z,1006.27
2016-07-31T02:43:03.139Z,1006.28
2016-07-31T02:44:03.145Z,1006.31
2016-07-31T02:45:03.153Z,1006.33
2016-07-31T02:46:03.158Z,1006.34
2016-07-31T02:47:03.163Z,1006.35
2016-07-31T02:48:03.172Z,1006.35
2016-07-31T02:49:03.178Z,1006.37
2016-07-31T02:50:03.185Z,1006.32
2016-07-31T02:51:03.192Z,1006.36
2016-07-31T02:52:03.199Z,1006.34
2016-07-31T02:53:03.206Z,1006.33
2016-07-31T02:54:03.212Z,1006.33
2016-07-31T02:55:03.218Z,1006.35
2016-07-31T02:56:03.225Z,1006.38
2016-07-31T02:57:03.230Z,1006.35
2016-07-31T02:58:03.238Z,1006.35
2016-07-31T02:59:03.245Z,1006.32
2016-07-31T03:00:03.251Z,1006.33
2016-07-31T03:01:03.259Z,1006.29
2016-07-31T03:02:03.265Z,1006.32
2016-07-31T03:03:03.272Z,1006.29
2016-07-31T03:04:03.279Z,1006.32
2016-07-31T03:05:03.286Z,1006.29
2016-07-31T03:06:03.293Z,1006.28
2016-07-31T03:07:03.299Z,1006.26
2016-07-31T03:08:03.356Z,1006.22
2016-07-31T03:09:03.312Z,1006.23
2016-07-31T03:10:03.319Z,1006.23
2016-07-31T03:11:03.327Z,1006.2
2016-07-31T03:12:03.334Z,1006.19
2016-07-31T03:13:03.341Z,1006.18
2016-07-31T03:14:03.347Z,1006.16
2016-07-31T03:15:03.352Z,1006.17
2016-07-31T03:16:03.360Z,1006.14
2016-07-31T03:17:03.366Z,1006.13
2016-07-31T03:18:03.373Z,1006.07
2016-07-31T03:19:03.380Z,1006.09
2016-07-31T03:20:03.386Z,1006.08
2016-07-31T03:21:03.390Z,1006.07
2016-07-31T03:22:03.398Z,1006.09
2016-07-31T03:23:03.406Z,1006.09
2016-07-31T03:24:03.412Z,1006.09
2016-07-31T03:25:03.419Z,1006.09
2016-07-31T03:26:03.425Z,1006.1
2016-07-31T03:27:03.430Z,1006.07
2016-07-31T03:28:03.437Z,1006.06
2016-07-31T03:29:03.445Z,1006.04
2016-07-31T03:30:03.451Z,1006.06
2016-07-31T03:31:03.457Z,1006.03
2016-07-31T03:32:03.464Z,1006.04
2016-07-31T03:33:03.470Z,1006
2016-07-31T03:34:03.479Z,1006.03
2016-07-31T03:35:03.483Z,1006.03
2016-07-31T03:36:03.491Z,1006.03
2016-07-31T03:37:03.497Z,1006.02
2016-07-31T03:38:03.503Z,1006.01
2016-07-31T03:39:03.510Z,1006.05
2016-07-31T03:40:03.517Z,1006.03
2016-07-31T03:41:03.522Z,1006.04
2016-07-31T03:42:03.529Z,1006.04
2016-07-31T03:43:03.537Z,1006.03
2016-07-31T03:44:03.542Z,1006.02
2016-07-31T03:45:03.551Z,1006.04
2016-07-31T03:46:03.555Z,1006.04
2016-07-31T03:47:03.562Z,1006.03
2016-07-31T03:48:03.569Z,1006.03
2016-07-31T03:49:03.577Z,1006.07
2016-07-31T03:50:03.581Z,1006.06
2016-07-31T03:51:03.590Z,1006.04
2016-07-31T03:52:03.598Z,1005.98
2016-07-31T03:53:03.602Z,1005.98
2016-07-31T03:54:03.609Z,1005.99
2016-07-31T03:55:03.614Z,1005.97
2016-07-31T03:56:03.623Z,1005.98
2016-07-31T03:57:03.628Z,1005.95
2016-07-31T03:58:03.636Z,1005.97
2016-07-31T03:59:03.641Z,1006
2016-07-31T04:00:03.649Z,1005.98
2016-07-31T04:01:03.655Z,1006.01
2016-07-31T04:02:03.665Z,1005.99
2016-07-31T04:03:03.669Z,1006.01
2016-07-31T04:04:03.675Z,1006.02
2016-07-31T04:05:03.681Z,1006
2016-07-31T04:06:03.738Z,1006.03
2016-07-31T04:07:03.696Z,1006.02
2016-07-31T04:08:03.701Z,1006.03
2016-07-31T04:09:03.709Z,1006.04
2016-07-31T04:10:03.716Z,1006.06
2016-07-31T04:11:03.722Z,1006.08
2016-07-31T04:12:03.778Z,1006.05
2016-07-31T04:13:03.736Z,1006.08
2016-07-31T04:14:03.742Z,1006.01
2016-07-31T04:15:03.747Z,1006.04
2016-07-31T04:16:03.757Z,1006.05
2016-07-31T04:17:04.160Z,1006.03
2016-07-31T04:18:03.769Z,1006.03
2016-07-31T04:19:03.775Z,1006.01
2016-07-31T04:20:03.782Z,1005.98
2016-07-31T04:21:03.789Z,1006.02
2016-07-31T04:22:03.800Z,1006.02
2016-07-31T04:23:03.802Z,1006.04
2016-07-31T04:24:03.809Z,1006.04
2016-07-31T04:25:03.815Z,1006.03
2016-07-31T04:26:03.822Z,1006.03
2016-07-31T04:27:03.829Z,1006.02
2016-07-31T04:28:04.491Z,1006.03
2016-07-31T04:29:03.843Z,1006.06
2016-07-31T04:30:03.849Z,1006.04
2016-07-31T04:31:03.856Z,1006.07
2016-07-31T04:32:03.913Z,1006.07
2016-07-31T04:33:03.869Z,1006.06
2016-07-31T04:34:03.876Z,1006.07
2016-07-31T04:35:03.883Z,1006.08
2016-07-31T04:36:03.891Z,1006.08
2016-07-31T04:37:03.895Z,1006.08
2016-07-31T04:38:03.903Z,1006.04
2016-07-31T04:39:04.812Z,1006.09
2016-07-31T04:40:03.917Z,1006.11
2016-07-31T04:41:03.923Z,1006.13
2016-07-31T04:42:03.928Z,1006.12
2016-07-31T04:43:03.936Z,1006.12
2016-07-31T04:44:03.942Z,1006.14
2016-07-31T04:45:03.949Z,1006.11
2016-07-31T04:46:03.956Z,1006.12
2016-07-31T04:47:03.964Z,1006.15
2016-07-31T04:48:03.970Z,1006.14
2016-07-31T04:49:03.976Z,1006.17
2016-07-31T04:50:05.075Z,1006.18
2016-07-31T04:51:03.990Z,1006.17
2016-07-31T04:52:03.997Z,1006.18
2016-07-31T04:53:04.003Z,1006.23
2016-07-31T04:54:04.010Z,1006.2
2016-07-31T04:55:04.018Z,1006.23
2016-07-31T04:56:04.023Z,1006.2
2016-07-31T04:57:04.031Z,1006.23
2016-07-31T04:58:04.038Z,1006.24
2016-07-31T04:59:04.043Z,1006.27
2016-07-31T05:00:04.051Z,1006.32
2016-07-31T05:01:04.057Z,1006.4
2016-07-31T05:02:04.069Z,1006.41
2016-07-31T05:03:04.071Z,1006.44
2016-07-31T05:04:04.077Z,1006.46
2016-07-31T05:05:04.085Z,1006.44
2016-07-31T05:06:04.092Z,1006.46
2016-07-31T05:07:04.098Z,1006.45
2016-07-31T05:08:04.103Z,1006.43
2016-07-31T05:09:04.111Z,1006.43
2016-07-31T05:10:04.327Z,1006.44
2016-07-31T05:11:04.125Z,1006.47
2016-07-31T05:12:04.131Z,1006.49
2016-07-31T05:13:04.187Z,1006.49
2016-07-31T05:14:04.144Z,1006.47
2016-07-31T05:15:04.151Z,1006.5
2016-07-31T05:16:04.159Z,1006.49
2016-07-31T05:17:04.165Z,1006.53
2016-07-31T05:18:04.173Z,1006.55
2016-07-31T05:19:04.183Z,1006.55
2016-07-31T05:20:04.186Z,1006.6
2016-07-31T05:21:04.894Z,1006.58
2016-07-31T05:22:04.199Z,1006.59
2016-07-31T05:23:04.205Z,1006.57
2016-07-31T05:24:04.212Z,1006.56
2016-07-31T05:25:04.219Z,1006.58
2016-07-31T05:26:04.227Z,1006.58
2016-07-31T05:27:04.234Z,1006.57
2016-07-31T05:28:04.239Z,1006.57
2016-07-31T05:30:04.254Z,1006.61
2016-07-31T05:31:04.260Z,1006.62
2016-07-31T05:32:05.319Z,1006.63
2016-07-31T05:33:04.275Z,1006.62
2016-07-31T05:34:04.282Z,1006.66
2016-07-31T05:35:04.289Z,1006.63
2016-07-31T05:36:04.295Z,1006.65
2016-07-31T05:37:04.301Z,1006.66
2016-07-31T05:38:04.308Z,1006.67
2016-07-31T05:39:04.314Z,1006.65
2016-07-31T05:40:04.321Z,1006.65
2016-07-31T05:41:04.327Z,1006.64
2016-07-31T05:42:04.335Z,1006.65
2016-07-31T05:43:04.341Z,1006.68
2016-07-31T05:44:04.348Z,1006.67
2016-07-31T05:45:04.354Z,1006.7
2016-07-31T05:46:04.362Z,1006.7
2016-07-31T05:47:04.369Z,1006.72
2016-07-31T05:48:04.375Z,1006.74
2016-07-31T05:49:04.382Z,1006.75
2016-07-31T05:50:04.389Z,1006.73
2016-07-31T05:51:04.394Z,1006.75
2016-07-31T05:52:04.401Z,1006.71
2016-07-31T05:53:04.408Z,1006.69
2016-07-31T05:54:04.415Z,1006.71
2016-07-31T05:55:04.421Z,1006.71
2016-07-31T05:56:04.429Z,1006.71
2016-07-31T05:57:04.437Z,1006.71
2016-07-31T05:58:04.441Z,1006.7
2016-07-31T05:59:04.447Z,1006.71
2016-07-31T06:00:04.455Z,1006.67
2016-07-31T06:01:04.460Z,1006.68
2016-07-31T06:02:04.468Z,1006.71
2016-07-31T06:03:04.479Z,1006.67
2016-07-31T06:04:04.484Z,1006.66
2016-07-31T06:05:04.490Z,1006.68
2016-07-31T06:06:04.496Z,1006.65
2016-07-31T06:07:04.504Z,1006.66
2016-07-31T06:08:04.511Z,1006.67
2016-07-31T06:09:04.517Z,1006.64
2016-07-31T06:10:04.524Z,1006.61
2016-07-31T06:11:04.531Z,1006.67
2016-07-31T06:12:04.537Z,1006.67
2016-07-31T06:13:04.542Z,1006.67
2016-07-31T06:14:04.550Z,1006.71
2016-07-31T06:15:04.558Z,1006.71
2016-07-31T06:16:04.614Z,1006.67
2016-07-31T06:17:04.573Z,1006.66
2016-07-31T06:18:04.578Z,1006.67
2016-07-31T06:19:04.586Z,1006.7
2016-07-31T06:20:04.643Z,1006.71
2016-07-31T06:21:04.599Z,1006.68
2016-07-31T06:22:04.606Z,1006.71
2016-07-31T06:23:04.613Z,1006.75
2016-07-31T06:24:04.620Z,1006.71
2016-07-31T06:26:04.634Z,1006.66
2016-07-31T06:27:04.639Z,1006.65
2016-07-31T06:28:04.647Z,1006.69
2016-07-31T06:29:04.654Z,1006.65
2016-07-31T06:30:04.661Z,1006.65
2016-07-31T06:31:04.666Z,1006.66
2016-07-31T06:32:04.674Z,1006.68
2016-07-31T06:33:04.684Z,1006.72
2016-07-31T06:34:04.686Z,1006.7
2016-07-31T06:35:04.704Z,1006.68
2016-07-31T06:36:04.700Z,1006.74
2016-07-31T06:37:04.707Z,1006.68
2016-07-31T06:38:04.715Z,1006.67
2016-07-31T06:39:04.744Z,1006.7
2016-07-31T06:40:04.977Z,1006.74
2016-07-31T06:41:04.736Z,1006.69
2016-07-31T06:42:04.742Z,1006.66
2016-07-31T06:43:04.747Z,1006.68
2016-07-31T06:44:04.755Z,1006.66
2016-07-31T06:45:04.761Z,1006.69
2016-07-31T06:46:04.768Z,1006.65
2016-07-31T06:47:04.775Z,1006.67
2016-07-31T06:48:04.782Z,1006.64
2016-07-31T06:49:04.787Z,1006.66
2016-07-31T06:50:04.796Z,1006.68
2016-07-31T06:51:05.453Z,1006.66
2016-07-31T06:52:04.809Z,1006.68
2016-07-31T06:53:04.815Z,1006.67
2016-07-31T06:54:04.823Z,1006.69
2016-07-31T06:55:04.832Z,1006.73
2016-07-31T06:56:04.838Z,1006.75
2016-07-31T06:57:04.843Z,1006.75
2016-07-31T06:58:04.851Z,1006.76
2016-07-31T06:59:04.858Z,1006.77
2016-07-31T07:00:04.863Z,1006.74
2016-07-31T07:01:04.921Z,1006.76
2016-07-31T07:02:05.981Z,1006.79
2016-07-31T07:03:04.884Z,1006.78
2016-07-31T07:04:04.890Z,1006.81
2016-07-31T07:05:04.898Z,1006.85
2016-07-31T07:06:04.904Z,1006.83
2016-07-31T07:07:04.910Z,1006.79
2016-07-31T07:08:04.920Z,1006.82
2016-07-31T07:09:04.926Z,1006.82
2016-07-31T07:10:04.932Z,1006.85
2016-07-31T07:11:05.140Z,1006.87
2016-07-31T07:12:04.946Z,1006.88
2016-07-31T07:13:04.953Z,1006.87
2016-07-31T07:14:04.960Z,1006.86
2016-07-31T07:15:04.967Z,1006.89
2016-07-31T07:16:04.973Z,1006.87
2016-07-31T07:17:04.981Z,1006.89
2016-07-31T07:18:04.986Z,1006.89
2016-07-31T07:19:04.993Z,1006.88
2016-07-31T07:20:05.001Z,1006.92
2016-07-31T07:21:05.007Z,1006.93
2016-07-31T07:22:05.612Z,1006.92
2016-07-31T07:23:05.021Z,1006.94
2016-07-31T07:24:05.028Z,1006.95
2016-07-31T07:25:05.034Z,1006.97
2016-07-31T07:26:05.041Z,1006.98
2016-07-31T07:27:05.048Z,1006.98
2016-07-31T07:28:05.054Z,1006.96
2016-07-31T07:29:05.060Z,1006.97
2016-07-31T07:30:05.067Z,1007
2016-07-31T07:31:05.075Z,1006.97
2016-07-31T07:32:05.081Z,1006.99
2016-07-31T07:33:05.087Z,1006.94
2016-07-31T07:34:05.094Z,1006.96
2016-07-31T07:35:05.103Z,1006.92
2016-07-31T07:36:05.109Z,1006.96
2016-07-31T07:37:05.115Z,1006.97
2016-07-31T07:38:05.122Z,1007
2016-07-31T07:39:05.130Z,1006.99
2016-07-31T07:40:05.136Z,1006.96
2016-07-31T07:41:05.144Z,1006.95
2016-07-31T07:42:05.200Z,1006.99
2016-07-31T07:43:05.157Z,1006.99
2016-07-31T07:44:05.163Z,1007
2016-07-31T07:45:05.170Z,1006.95
2016-07-31T07:46:05.180Z,1006.95
2016-07-31T07:47:05.183Z,1006.96
2016-07-31T07:48:05.191Z,1006.99
2016-07-31T07:49:05.199Z,1006.93
2016-07-31T07:50:05.207Z,1006.99
2016-07-31T07:51:05.214Z,1007
2016-07-31T07:52:05.218Z,1007.05
2016-07-31T07:53:05.975Z,1007.04
2016-07-31T07:54:05.234Z,1007.02
2016-07-31T07:55:05.239Z,1007
2016-07-31T07:56:05.246Z,1006.98
2016-07-31T07:57:05.254Z,1007.06
2016-07-31T07:58:05.310Z,1007.05
2016-07-31T07:59:05.267Z,1007.07
2016-07-31T08:00:05.275Z,1007.11
2016-07-31T08:01:05.281Z,1007.11
2016-07-31T08:02:05.289Z,1007.11
2016-07-31T08:03:05.298Z,1007.15
2016-07-31T08:04:06.304Z,1007.15
2016-07-31T08:05:05.309Z,1007.14
2016-07-31T08:06:05.315Z,1007.15
2016-07-31T08:07:05.323Z,1007.15
2016-07-31T08:08:05.331Z,1007.16
2016-07-31T08:09:05.335Z,1007.15
2016-07-31T08:10:05.344Z,1007.18
2016-07-31T08:11:05.352Z,1007.16
2016-07-31T08:12:05.357Z,1007.17
2016-07-31T08:13:05.365Z,1007.18
2016-07-31T08:14:05.375Z,1007.19
2016-07-31T08:15:05.380Z,1007.2
2016-07-31T08:16:05.386Z,1007.17
2016-07-31T08:17:05.392Z,1007.17
2016-07-31T08:18:05.400Z,1007.21
2016-07-31T08:19:05.409Z,1007.21
2016-07-31T08:20:05.415Z,1007.22
2016-07-31T08:21:05.421Z,1007.24
2016-07-31T08:22:05.430Z,1007.25
2016-07-31T08:23:05.485Z,1007.26
2016-07-31T08:24:05.441Z,1007.22
2016-07-31T08:25:05.449Z,1007.19
2016-07-31T08:26:05.456Z,1007.2
2016-07-31T08:27:05.463Z,1007.2
2016-07-31T08:28:05.471Z,1007.2
2016-07-31T08:29:05.478Z,1007.23
2016-07-31T08:30:05.485Z,1007.23
2016-07-31T08:31:05.492Z,1007.23
2016-07-31T08:32:05.497Z,1007.23
2016-07-31T08:33:05.506Z,1007.19
2016-07-31T08:34:05.512Z,1007.14
2016-07-31T08:35:05.519Z,1007.16
2016-07-31T08:36:05.526Z,1007.18
2016-07-31T08:37:05.534Z,1007.15
2016-07-31T08:38:05.540Z,1007.18
2016-07-31T08:39:05.547Z,1007.23
2016-07-31T08:40:05.555Z,1007.22
2016-07-31T08:41:05.563Z,1007.26
2016-07-31T08:42:05.567Z,1007.23
2016-07-31T08:43:05.575Z,1007.22
2016-07-31T08:44:05.583Z,1007.22
2016-07-31T08:45:05.590Z,1007.25
2016-07-31T08:46:05.593Z,1007.19
2016-07-31T08:47:05.602Z,1007.2
2016-07-31T08:48:05.611Z,1007.18
2016-07-31T08:49:05.616Z,1007.17
2016-07-31T08:50:05.622Z,1007.18
2016-07-31T08:51:05.630Z,1007.16
2016-07-31T08:52:05.637Z,1007.15
2016-07-31T08:53:05.644Z,1007.18
2016-07-31T08:54:05.650Z,1007.16
2016-07-31T08:55:05.657Z,1007.19
2016-07-31T08:56:05.665Z,1007.18
2016-07-31T08:57:05.673Z,1007.18
2016-07-31T08:58:05.681Z,1007.16
2016-07-31T08:59:05.686Z,1007.19
2016-07-31T09:00:05.691Z,1007.17
2016-07-31T09:01:06.100Z,1007.19
2016-07-31T09:02:05.708Z,1007.19
2016-07-31T09:03:05.714Z,1007.19
2016-07-31T09:04:05.721Z,1007.2
2016-07-31T09:05:05.726Z,1007.22
2016-07-31T09:06:05.736Z,1007.23
2016-07-31T09:07:05.744Z,1007.19
2016-07-31T09:08:05.760Z,1007.19
2016-07-31T09:09:05.754Z,1007.25
2016-07-31T09:10:05.764Z,1007.29
2016-07-31T09:11:05.769Z,1007.24
2016-07-31T09:12:06.377Z,1007.27
2016-07-31T09:13:05.782Z,1007.3
2016-07-31T09:14:05.792Z,1007.33
2016-07-31T09:15:05.799Z,1007.28
2016-07-31T09:16:05.805Z,1007.34
2016-07-31T09:17:05.812Z,1007.32
2016-07-31T09:18:05.818Z,1007.34
2016-07-31T09:19:05.877Z,1007.44
2016-07-31T09:20:05.833Z,1007.43
2016-07-31T09:21:05.841Z,1007.42
2016-07-31T09:22:05.853Z,1007.42
2016-07-31T09:23:06.756Z,1007.38
2016-07-31T09:24:05.865Z,1007.4
2016-07-31T09:25:05.870Z,1007.39
2016-07-31T09:26:05.926Z,1007.42
2016-07-31T09:27:05.882Z,1007.4
2016-07-31T09:28:05.891Z,1007.41
2016-07-31T09:29:05.896Z,1007.43
2016-07-31T09:30:05.910Z,1007.42
2016-07-31T09:31:05.911Z,1007.4
2016-07-31T09:32:05.918Z,1007.43
2016-07-31T09:33:05.923Z,1007.41
2016-07-31T09:34:05.933Z,1007.43
2016-07-31T09:35:05.940Z,1007.38
2016-07-31T09:36:05.947Z,1007.42
2016-07-31T09:37:05.955Z,1007.44
2016-07-31T09:38:05.962Z,1007.43
2016-07-31T09:39:05.969Z,1007.44
2016-07-31T09:40:05.980Z,1007.45
2016-07-31T09:41:05.984Z,1007.41
2016-07-31T09:42:05.990Z,1007.44
2016-07-31T09:43:05.998Z,1007.41
2016-07-31T09:44:06.003Z,1007.45
2016-07-31T09:45:06.013Z,1007.48
2016-07-31T09:46:06.018Z,1007.47
2016-07-31T09:47:06.026Z,1007.43
2016-07-31T09:48:06.033Z,1007.43
2016-07-31T09:49:06.041Z,1007.47
2016-07-31T09:50:06.046Z,1007.43
2016-07-31T09:51:06.054Z,1007.44
2016-07-31T09:52:06.059Z,1007.44
2016-07-31T09:53:06.066Z,1007.43
2016-07-31T09:54:06.423Z,1007.45
2016-07-31T09:55:06.079Z,1007.47
2016-07-31T09:56:06.087Z,1007.49
2016-07-31T09:57:06.094Z,1007.5
2016-07-31T09:58:06.100Z,1007.46
2016-07-31T09:59:06.109Z,1007.48
2016-07-31T10:01:06.122Z,1007.44
2016-07-31T10:02:06.128Z,1007.46
2016-07-31T10:03:06.147Z,1007.45
2016-07-31T10:04:06.143Z,1007.58
2016-07-31T10:05:07.252Z,1007.59
2016-07-31T10:06:06.158Z,1007.57
2016-07-31T10:07:06.164Z,1007.52
2016-07-31T10:08:06.172Z,1007.57
2016-07-31T10:09:06.179Z,1007.58
2016-07-31T10:10:06.185Z,1007.61
2016-07-31T10:11:06.241Z,1007.63
2016-07-31T10:12:06.200Z,1007.63
2016-07-31T10:13:06.207Z,1007.66
2016-07-31T10:14:06.213Z,1007.71
2016-07-31T10:15:06.221Z,1007.66
2016-07-31T10:16:06.229Z,1007.68
2016-07-31T10:17:06.234Z,1007.71
2016-07-31T10:18:06.241Z,1007.72
2016-07-31T10:19:06.349Z,1007.74
2016-07-31T10:20:06.254Z,1007.77
2016-07-31T10:21:06.272Z,1007.82
2016-07-31T10:22:06.270Z,1007.86
2016-07-31T10:23:06.276Z,1007.88
2016-07-31T10:24:06.283Z,1007.89
2016-07-31T10:25:06.289Z,1007.87
2016-07-31T10:26:06.298Z,1007.89
2016-07-31T10:27:06.303Z,1007.91
2016-07-31T10:28:06.310Z,1007.84
2016-07-31T10:29:06.317Z,1007.81
2016-07-31T10:30:06.326Z,1007.84
2016-07-31T10:31:06.331Z,1007.83
2016-07-31T10:32:06.336Z,1007.87
2016-07-31T10:33:06.346Z,1007.89
2016-07-31T10:34:06.351Z,1007.94
2016-07-31T10:35:06.358Z,1007.94
2016-07-31T10:36:06.468Z,1007.96
2016-07-31T10:37:06.381Z,1008
2016-07-31T10:38:06.379Z,1008.01
2016-07-31T10:39:06.386Z,1008.05
2016-07-31T10:40:06.391Z,1008.05
2016-07-31T10:41:06.399Z,1008.05
2016-07-31T10:42:06.407Z,1008.05
2016-07-31T10:43:06.412Z,1008.09
2016-07-31T10:44:06.419Z,1008.07
2016-07-31T10:45:06.428Z,1008.06
2016-07-31T10:46:06.432Z,1008.06
2016-07-31T10:47:06.440Z,1008.04
2016-07-31T10:48:06.448Z,1008.08
2016-07-31T10:49:06.455Z,1008.12
2016-07-31T10:50:06.460Z,1008.12
2016-07-31T10:51:06.517Z,1008.1
2016-07-31T10:52:06.545Z,1008.09
2016-07-31T10:53:06.481Z,1008.11
2016-07-31T10:54:06.494Z,1008.08
2016-07-31T10:55:06.495Z,1008.1
2016-07-31T10:56:06.503Z,1008.11
2016-07-31T10:57:06.509Z,1008.06
2016-07-31T10:58:06.516Z,1008.08
2016-07-31T10:59:06.523Z,1008.05
2016-07-31T11:00:06.530Z,1008.03
2016-07-31T11:01:06.536Z,1008.06
2016-07-31T11:02:07.242Z,1008.05
2016-07-31T11:03:06.550Z,1008.07
2016-07-31T11:04:06.557Z,1008.1
2016-07-31T11:05:06.563Z,1008.07
2016-07-31T11:06:06.571Z,1008.05
2016-07-31T11:07:06.577Z,1008.08
2016-07-31T11:08:06.583Z,1008.07
2016-07-31T11:09:06.591Z,1008.07
2016-07-31T11:10:06.597Z,1008.06
2016-07-31T11:11:06.605Z,1008.07
2016-07-31T11:12:06.611Z,1008.07
2016-07-31T11:13:07.719Z,1008.09
2016-07-31T11:14:06.624Z,1008.09
2016-07-31T11:15:06.632Z,1008.09
2016-07-31T11:16:06.638Z,1008.1
2016-07-31T11:17:06.645Z,1008.1
2016-07-31T11:18:06.651Z,1008.12
2016-07-31T11:19:06.656Z,1008.15
2016-07-31T11:20:06.715Z,1008.11
2016-07-31T11:21:06.671Z,1008.12
2016-07-31T11:22:06.727Z,1008.16
2016-07-31T11:23:06.683Z,1008.16
2016-07-31T11:24:06.694Z,1008.13
2016-07-31T11:25:06.698Z,1008.22
2016-07-31T11:26:06.705Z,1008.24
2016-07-31T11:27:06.708Z,1008.2
2016-07-31T11:28:06.716Z,1008.21
2016-07-31T11:29:06.725Z,1008.23
2016-07-31T11:30:06.730Z,1008.23
2016-07-31T11:31:06.736Z,1008.28
2016-07-31T11:32:06.743Z,1008.28
2016-07-31T11:33:06.949Z,1008.3
2016-07-31T11:34:06.755Z,1008.34
2016-07-31T11:35:06.763Z,1008.3
2016-07-31T11:36:06.770Z,1008.31
2016-07-31T11:37:06.775Z,1008.35
2016-07-31T11:38:06.783Z,1008.37
2016-07-31T11:39:06.789Z,1008.35
2016-07-31T11:40:06.798Z,1008.31
2016-07-31T11:41:06.814Z,1008.36
2016-07-31T11:42:06.811Z,1008.32
2016-07-31T11:43:06.818Z,1008.29
2016-07-31T11:44:07.426Z,1008.28
2016-07-31T11:45:06.831Z,1008.29
2016-07-31T11:46:06.838Z,1008.31
2016-07-31T11:47:06.845Z,1008.26
2016-07-31T11:48:06.851Z,1008.27
2016-07-31T11:49:06.860Z,1008.25
2016-07-31T11:50:06.866Z,1008.24
2016-07-31T11:51:06.873Z,1008.21
2016-07-31T11:52:06.877Z,1008.21
2016-07-31T11:53:06.886Z,1008.19
2016-07-31T11:54:06.892Z,1008.16
2016-07-31T11:55:07.800Z,1008.15
2016-07-31T11:56:06.907Z,1008.13
2016-07-31T11:57:06.912Z,1008.18
2016-07-31T11:58:06.920Z,1008.26
2016-07-31T11:59:06.927Z,1008.21
2016-07-31T12:00:06.934Z,1008.19
2016-07-31T12:01:06.941Z,1008.24
2016-07-31T12:02:06.948Z,1008.22
2016-07-31T12:03:06.954Z,1008.19
2016-07-31T12:04:06.961Z,1008.22
2016-07-31T12:05:06.969Z,1008.27
2016-07-31T12:06:06.977Z,1008.26
2016-07-31T12:07:06.982Z,1008.32
2016-07-31T12:08:06.989Z,1008.33
2016-07-31T12:09:06.997Z,1008.32
2016-07-31T12:10:07.002Z,1008.3
2016-07-31T12:11:07.061Z,1008.3
2016-07-31T12:12:07.016Z,1008.31
2016-07-31T12:13:07.030Z,1008.31
2016-07-31T12:14:07.031Z,1008.29
2016-07-31T12:15:07.088Z,1008.28